createdAt,value
2018-10-07T00:02:01.207Z,75.88
2018-10-07T00:05:05.358Z,75.82
2018-10-07T00:08:09.511Z,75.95
2018-10-07T00:11:13.678Z,76.19
2018-10-07T00:14:17.810Z,76.39
2018-10-07T00:17:22.059Z,76.22
2018-10-07T00:20:26.302Z,76.62
2018-10-07T00:23:30.500Z,77.17
2018-10-07T00:26:34.647Z,76.79
2018-10-07T00:29:38.802Z,76.97
2018-10-07T00:32:42.950Z,77.33
2018-10-07T00:35:47.143Z,76.61
2018-10-07T00:38:51.295Z,77.67
2018-10-07T00:41:55.434Z,76.89
2018-10-07T00:44:59.568Z,77.69
2018-10-07T00:48:03.699Z,77.05
2018-10-07T00:51:07.827Z,77.42
2018-10-07T00:54:11.942Z,77.62
2018-10-07T00:57:16.080Z,77.53
2018-10-07T01:00:20.227Z,77.25
2018-10-07T01:03:24.342Z,77.63
2018-10-07T01:06:28.463Z,77.29
2018-10-07T01:09:32.614Z,77.92
2018-10-07T01:12:36.739Z,78.41
2018-10-07T01:15:40.962Z,77.56
2018-10-07T01:18:45.101Z,77.57
2018-10-07T01:21:49.481Z,77.64
2018-10-07T01:24:53.642Z,77.70
2018-10-07T01:27:57.773Z,77.39
2018-10-07T01:31:01.966Z,77.70
2018-10-07T01:34:06.148Z,77.90
2018-10-07T01:37:10.275Z,78.65
2018-10-07T01:40:14.414Z,78.78
2018-10-07T01:43:18.648Z,78.62
2018-10-07T01:46:22.782Z,77.52
2018-10-07T01:49:26.931Z,78.07
2018-10-07T01:52:31.098Z,77.91
2018-10-07T01:55:35.222Z,78.21
2018-10-07T01:58:39.354Z,77.67
2018-10-07T02:01:43.486Z,77.48
2018-10-07T02:04:47.638Z,77.22
2018-10-07T02:07:51.827Z,77.12
2018-10-07T02:10:55.958Z,78.22
2018-10-07T02:14:00.188Z,78.08
2018-10-07T02:17:04.270Z,78.18
2018-10-07T02:20:08.407Z,77.54
2018-10-07T02:23:12.528Z,77.57
2018-10-07T02:26:16.669Z,77.84
2018-10-07T02:29:20.800Z,77.71
2018-10-07T02:32:24.936Z,78.21
2018-10-07T02:35:29.498Z,78.32
2018-10-07T02:38:33.639Z,78.04
2018-10-07T02:41:37.784Z,78.30
2018-10-07T02:44:41.926Z,78.93
2018-10-07T02:47:46.043Z,79.24
2018-10-07T02:50:50.170Z,79.23
2018-10-07T02:53:54.305Z,78.99
2018-10-07T02:56:58.441Z,78.96
2018-10-07T03:00:02.581Z,79.10
2018-10-07T03:03:06.755Z,78.42
2018-10-07T03:06:10.895Z,78.93
2018-10-07T03:09:15.020Z,78.62
2018-10-07T03:12:19.149Z,78.91
2018-10-07T03:15:23.292Z,78.26
2018-10-07T03:18:27.439Z,78.99
2018-10-07T03:21:32.185Z,78.52
2018-10-07T03:24:36.306Z,78.38
2018-10-07T03:27:40.444Z,79.39
2018-10-07T03:30:44.599Z,79.07
2018-10-07T03:33:48.727Z,78.87
2018-10-07T03:36:53.049Z,79.82
2018-10-07T03:39:57.189Z,79.65
2018-10-07T03:43:01.327Z,79.45
2018-10-07T03:46:05.467Z,78.90
2018-10-07T03:49:09.597Z,78.65
2018-10-07T03:52:13.785Z,79.15
2018-10-07T03:55:17.907Z,79.86
2018-10-07T03:58:22.026Z,79.81
2018-10-07T04:01:26.149Z,78.95
2018-10-07T04:04:30.290Z,79.09
2018-10-07T04:07:34.573Z,78.69
2018-10-07T04:10:38.702Z,79.34
2018-10-07T04:13:42.847Z,79.68
2018-10-07T04:16:46.998Z,79.45
2018-10-07T04:19:51.128Z,79.65
2018-10-07T04:22:55.250Z,79.29
2018-10-07T04:25:59.418Z,78.86
2018-10-07T04:29:03.533Z,78.61
2018-10-07T04:32:07.726Z,78.34
2018-10-07T04:35:11.883Z,78.88
2018-10-07T04:38:16.014Z,77.92
2018-10-07T04:41:20.155Z,78.72
2018-10-07T04:44:24.320Z,79.79
2018-10-07T04:47:28.449Z,78.92
2018-10-07T04:50:32.574Z,78.73
2018-10-07T04:53:36.880Z,79.65
2018-10-07T04:56:41.026Z,79.89
2018-10-07T04:59:45.155Z,79.75
2018-10-07T05:02:49.286Z,79.81
2018-10-07T05:05:53.431Z,79.92
2018-10-07T05:08:57.920Z,79.78
2018-10-07T05:12:05.029Z,79.87
2018-10-07T05:15:09.118Z,80.66
2018-10-07T05:18:13.262Z,80.18
2018-10-07T05:21:17.399Z,79.88
2018-10-07T05:24:21.524Z,79.21
2018-10-07T05:27:25.653Z,79.42
2018-10-07T05:30:29.882Z,79.31
2018-10-07T05:33:34.133Z,79.31
2018-10-07T05:36:38.163Z,80.14
2018-10-07T05:39:42.315Z,79.98
2018-10-07T05:42:46.451Z,79.76
2018-10-07T05:45:50.587Z,79.12
2018-10-07T05:48:54.757Z,79.32
2018-10-07T05:51:58.910Z,79.79
2018-10-07T05:55:03.049Z,79.73
2018-10-07T05:58:07.268Z,79.80
2018-10-07T06:01:27.050Z,79.10
2018-10-07T06:04:40.337Z,77.05
2018-10-07T06:07:44.870Z,74.87
2018-10-07T06:10:49.001Z,71.74
2018-10-07T06:13:53.149Z,69.32
2018-10-07T06:16:57.355Z,69.82
2018-10-07T06:20:01.509Z,68.24
2018-10-07T06:23:05.646Z,66.30
2018-10-07T06:26:09.779Z,64.91
2018-10-07T06:29:14.742Z,62.83
2018-10-07T06:32:18.893Z,59.12
2018-10-07T06:35:23.962Z,56.64
2018-10-07T06:38:28.100Z,55.61
2018-10-07T06:41:32.222Z,53.87
2018-10-07T06:44:36.365Z,51.15
2018-10-07T06:47:40.529Z,49.33
2018-10-07T06:50:44.746Z,50.42
2018-10-07T06:53:48.878Z,52.56
2018-10-07T06:56:53.019Z,55.11
2018-10-07T06:59:57.185Z,57.33
2018-10-07T07:03:01.330Z,58.52
2018-10-07T07:06:05.462Z,61.03
2018-10-07T07:09:10.885Z,62.12
2018-10-07T07:12:15.011Z,64.54
2018-10-07T07:15:19.166Z,66.39
2018-10-07T07:18:24.332Z,67.74
2018-10-07T07:21:28.486Z,68.69
2018-10-07T07:24:32.643Z,69.46
2018-10-07T07:27:36.810Z,69.77
2018-10-07T07:30:41.002Z,69.96
2018-10-07T07:33:45.138Z,69.82
2018-10-07T07:36:49.301Z,70.08
2018-10-07T07:39:53.482Z,69.88
2018-10-07T07:42:57.638Z,69.43
2018-10-07T07:46:01.853Z,69.75
2018-10-07T07:49:06.033Z,69.93
2018-10-07T07:52:10.115Z,69.19
2018-10-07T07:55:14.269Z,69.28
2018-10-07T07:58:18.431Z,67.58
2018-10-07T08:01:22.639Z,66.84
2018-10-07T08:04:26.771Z,64.92
2018-10-07T08:07:30.938Z,64.70
2018-10-07T08:10:35.154Z,64.14
2018-10-07T08:13:39.439Z,64.31
2018-10-07T08:16:43.583Z,63.97
2018-10-07T08:19:47.782Z,63.17
2018-10-07T08:22:51.972Z,62.55
2018-10-07T08:25:56.166Z,61.47
2018-10-07T08:29:00.338Z,61.96
2018-10-07T08:32:04.503Z,61.41
2018-10-07T08:35:08.778Z,61.78
2018-10-07T08:38:12.943Z,61.90
2018-10-07T08:41:17.154Z,60.81
2018-10-07T08:44:21.318Z,60.35
2018-10-07T08:47:25.462Z,60.02
2018-10-07T08:50:29.598Z,60.74
2018-10-07T08:53:33.750Z,60.09
2018-10-07T08:56:37.926Z,60.04
2018-10-07T08:59:42.071Z,59.11
2018-10-07T09:02:46.230Z,59.34
2018-10-07T09:05:50.368Z,56.15
2018-10-07T09:08:54.705Z,56.52
2018-10-07T09:11:58.743Z,56.76
2018-10-07T09:15:03.062Z,56.00
2018-10-07T09:18:07.270Z,54.41
2018-10-07T09:21:11.401Z,52.90
2018-10-07T09:24:15.680Z,52.93
2018-10-07T09:27:20.037Z,51.68
2018-10-07T09:30:24.321Z,51.94
2018-10-07T09:33:28.466Z,52.91
2018-10-07T09:36:33.689Z,53.28
2018-10-07T09:39:37.799Z,53.89
2018-10-07T09:42:42.062Z,53.25
2018-10-07T09:45:46.183Z,52.76
2018-10-07T09:48:50.318Z,52.78
2018-10-07T09:51:54.490Z,51.80
2018-10-07T09:54:58.707Z,50.52
2018-10-07T09:58:02.913Z,50.42
2018-10-07T10:01:07.055Z,49.03
2018-10-07T10:04:11.655Z,49.52
2018-10-07T10:07:15.766Z,47.64
2018-10-07T10:10:19.942Z,46.83
2018-10-07T10:13:24.070Z,47.34
2018-10-07T10:17:33.068Z,47.04
2018-10-07T10:20:59.649Z,46.20
2018-10-07T10:25:18.138Z,45.80
2018-10-07T10:29:30.256Z,45.74
2018-10-07T10:32:42.042Z,45.64
2018-10-07T10:38:03.370Z,44.95
2018-10-07T10:41:25.418Z,46.16
2018-10-07T10:44:42.058Z,44.43
2018-10-07T10:47:47.277Z,44.68
2018-10-07T10:53:07.173Z,43.87
2018-10-07T10:56:27.793Z,44.02
2018-10-07T10:59:46.163Z,43.92
2018-10-07T11:05:08.070Z,43.76
2018-10-07T11:09:41.510Z,43.13
2018-10-07T11:13:02.328Z,43.60
2018-10-07T11:16:22.963Z,41.32
2018-10-07T11:19:37.956Z,41.81
2018-10-07T11:22:58.858Z,42.67
2018-10-07T11:26:13.985Z,42.79
2018-10-07T11:29:46.974Z,42.15
2018-10-07T11:33:12.073Z,42.51
2018-10-07T11:36:30.998Z,42.42
2018-10-07T11:42:05.850Z,41.44
2018-10-07T11:45:17.778Z,42.87
2018-10-07T11:49:32.142Z,42.89
2018-10-07T11:52:59.474Z,43.53
2018-10-07T11:56:03.521Z,41.57
2018-10-07T11:59:07.918Z,41.90
2018-10-07T12:02:12.073Z,41.47
2018-10-07T12:05:16.196Z,41.46
2018-10-07T12:08:20.413Z,39.47
2018-10-07T12:11:24.534Z,39.70
2018-10-07T12:14:28.666Z,40.49
2018-10-07T12:17:32.870Z,40.94
2018-10-07T12:20:37.011Z,40.67
2018-10-07T12:23:41.139Z,40.06
2018-10-07T12:26:45.319Z,40.58
2018-10-07T12:29:49.439Z,39.83
2018-10-07T12:32:53.570Z,39.69
2018-10-07T12:35:57.699Z,41.19
2018-10-07T12:39:01.823Z,40.59
2018-10-07T12:42:06.078Z,39.71
2018-10-07T12:45:10.234Z,41.23
2018-10-07T12:48:14.382Z,41.44
2018-10-07T12:51:18.506Z,40.14
2018-10-07T12:54:22.668Z,40.20
2018-10-07T12:57:26.802Z,39.88
2018-10-07T13:00:31.011Z,39.53
2018-10-07T13:03:35.474Z,38.47
2018-10-07T13:06:39.610Z,39.28
2018-10-07T13:09:43.794Z,39.97
2018-10-07T13:12:47.858Z,38.27
2018-10-07T13:15:51.988Z,38.07
2018-10-07T13:18:56.136Z,36.37
2018-10-07T13:22:00.266Z,33.86
2018-10-07T13:25:04.403Z,34.08
2018-10-07T13:28:08.548Z,31.56
2018-10-07T13:31:12.663Z,31.65
2018-10-07T13:34:16.825Z,30.02
2018-10-07T13:37:21.020Z,29.66
2018-10-07T13:40:25.137Z,30.91
2018-10-07T13:43:29.277Z,30.32
2018-10-07T13:46:33.422Z,30.41
2018-10-07T13:49:37.555Z,31.70
2018-10-07T13:52:41.701Z,32.51
2018-10-07T13:55:45.826Z,31.73
2018-10-07T13:58:49.953Z,32.70
2018-10-07T14:01:54.102Z,33.48
2018-10-07T14:04:58.295Z,34.12
2018-10-07T14:08:02.454Z,34.40
2018-10-07T14:11:06.778Z,35.09
2018-10-07T14:14:10.940Z,35.70
2018-10-07T14:17:15.056Z,35.47
2018-10-07T14:20:19.216Z,36.69
2018-10-07T14:23:23.352Z,36.50
2018-10-07T14:26:27.470Z,36.49
2018-10-07T14:29:31.606Z,38.58
2018-10-07T14:32:35.800Z,37.75
2018-10-07T14:35:39.970Z,39.30
2018-10-07T14:38:44.342Z,38.68
2018-10-07T14:41:48.485Z,40.78
2018-10-07T14:44:52.624Z,40.55
2018-10-07T14:47:56.749Z,41.53
2018-10-07T14:51:00.938Z,41.89
2018-10-07T14:54:05.092Z,43.52
2018-10-07T14:57:09.206Z,43.70
2018-10-07T15:00:13.347Z,43.23
2018-10-07T15:03:17.485Z,44.31
2018-10-07T15:06:21.618Z,44.89
2018-10-07T15:09:25.779Z,45.98
2018-10-07T15:12:30.114Z,45.80
2018-10-07T15:15:34.270Z,46.94
2018-10-07T15:18:38.436Z,46.41
2018-10-07T15:21:42.567Z,46.85
2018-10-07T15:24:46.732Z,47.26
2018-10-07T15:27:50.874Z,47.67
2018-10-07T15:30:55.065Z,47.63
2018-10-07T15:33:59.194Z,46.73
2018-10-07T15:37:03.330Z,47.32
2018-10-07T15:40:07.749Z,48.36
2018-10-07T15:43:11.891Z,49.22
2018-10-07T15:46:16.038Z,48.61
2018-10-07T15:49:20.174Z,48.48
2018-10-07T15:52:24.290Z,49.90
2018-10-07T15:55:28.426Z,50.33
2018-10-07T15:58:32.555Z,49.64
2018-10-07T16:01:36.690Z,50.65
2018-10-07T16:04:40.834Z,51.54
2018-10-07T16:07:44.963Z,52.31
2018-10-07T16:10:49.098Z,53.02
2018-10-07T16:13:53.230Z,53.77
2018-10-07T16:16:57.359Z,53.89
2018-10-07T16:20:01.496Z,53.11
2018-10-07T16:23:05.625Z,53.04
2018-10-07T16:26:09.870Z,53.37
2018-10-07T16:29:13.996Z,52.79
2018-10-07T16:32:18.187Z,53.64
2018-10-07T16:35:22.288Z,53.84
2018-10-07T16:38:26.602Z,54.22
2018-10-07T16:41:30.754Z,54.85
2018-10-07T16:44:34.910Z,55.21
2018-10-07T16:47:39.058Z,55.38
2018-10-07T16:50:43.196Z,55.65
2018-10-07T16:53:47.327Z,56.04
2018-10-07T16:56:51.462Z,57.28
2018-10-07T16:59:55.612Z,58.20
2018-10-07T17:02:59.858Z,58.25
2018-10-07T17:06:04.062Z,59.52
2018-10-07T17:09:09.402Z,59.56
2018-10-07T17:12:13.567Z,59.80
2018-10-07T17:15:17.694Z,60.06
2018-10-07T17:18:21.811Z,59.49
2018-10-07T17:21:25.934Z,59.71
2018-10-07T17:24:30.062Z,59.68
2018-10-07T17:27:34.352Z,59.91
2018-10-07T17:30:38.490Z,60.26
2018-10-07T17:33:42.640Z,61.37
2018-10-07T17:36:46.790Z,61.16
2018-10-07T17:39:51.054Z,60.90
2018-10-07T17:42:55.198Z,60.67
2018-10-07T17:45:59.350Z,61.24
2018-10-07T17:49:03.685Z,60.99
2018-10-07T17:52:07.682Z,61.42
2018-10-07T17:55:11.823Z,62.78
2018-10-07T17:58:15.973Z,62.83
2018-10-07T18:01:20.118Z,62.49
2018-10-07T18:04:24.266Z,62.47
2018-10-07T18:07:28.427Z,63.01
2018-10-07T18:10:32.575Z,63.44
2018-10-07T18:13:36.763Z,62.73
2018-10-07T18:16:40.907Z,63.44
2018-10-07T18:19:45.036Z,63.71
2018-10-07T18:22:49.202Z,63.36
2018-10-07T18:25:53.345Z,63.11
2018-10-07T18:28:57.498Z,63.78
2018-10-07T18:32:01.642Z,63.56
2018-10-07T18:35:05.790Z,64.21
2018-10-07T18:38:09.923Z,64.19
2018-10-07T18:41:14.077Z,64.89
2018-10-07T18:44:18.226Z,65.31
2018-10-07T18:47:22.369Z,64.75
2018-10-07T18:50:26.882Z,64.48
2018-10-07T18:53:31.066Z,65.07
2018-10-07T18:56:35.230Z,65.07
2018-10-07T18:59:39.362Z,65.34
2018-10-07T19:02:43.543Z,64.96
2018-10-07T19:05:47.646Z,64.86
2018-10-07T19:08:51.802Z,65.50
2018-10-07T19:11:55.958Z,65.78
2018-10-07T19:15:00.124Z,65.32
2018-10-07T19:18:04.557Z,66.03
2018-10-07T19:21:08.786Z,66.71
2018-10-07T19:24:12.914Z,66.13
2018-10-07T19:27:17.083Z,67.33
2018-10-07T19:30:21.255Z,66.93
2018-10-07T19:33:25.402Z,67.40
2018-10-07T19:36:29.566Z,66.14
2018-10-07T19:39:33.719Z,66.18
2018-10-07T19:42:37.863Z,66.44
2018-10-07T19:45:42.018Z,66.12
2018-10-07T19:48:46.170Z,65.95
2018-10-07T19:51:50.355Z,67.32
2018-10-07T19:54:54.502Z,66.24
2018-10-07T19:57:58.644Z,66.91
2018-10-07T20:01:02.811Z,67.29
2018-10-07T20:04:06.982Z,66.68
2018-10-07T20:07:11.138Z,66.75
2018-10-07T20:10:15.287Z,67.57
2018-10-07T20:13:19.468Z,67.16
2018-10-07T20:16:23.596Z,68.12
2018-10-07T20:19:27.862Z,68.17
2018-10-07T20:22:31.947Z,68.10
2018-10-07T20:25:36.236Z,68.60
2018-10-07T20:28:40.374Z,68.36
2018-10-07T20:31:44.584Z,68.33
2018-10-07T20:34:48.734Z,69.20
2018-10-07T20:37:52.978Z,70.08
2018-10-07T20:40:57.127Z,69.12
2018-10-07T20:44:01.352Z,68.69
2018-10-07T20:47:05.550Z,69.54
2018-10-07T20:50:09.696Z,70.54
2018-10-07T20:53:13.834Z,70.19
2018-10-07T20:56:18.054Z,69.78
2018-10-07T20:59:22.213Z,70.67
2018-10-07T21:02:26.511Z,71.42
2018-10-07T21:05:30.642Z,70.73
2018-10-07T21:08:34.786Z,71.16
2018-10-07T21:11:39.243Z,70.84
2018-10-07T21:14:43.414Z,70.75
2018-10-07T21:17:47.570Z,70.67
2018-10-07T21:20:51.726Z,70.88
2018-10-07T21:23:56.010Z,70.39
2018-10-07T21:27:00.162Z,70.98
2018-10-07T21:30:04.334Z,70.98
2018-10-07T21:33:08.482Z,71.13
2018-10-07T21:36:12.613Z,70.45
2018-10-07T21:39:16.782Z,71.57
2018-10-07T21:42:20.938Z,71.74
2018-10-07T21:45:25.096Z,71.70
2018-10-07T21:48:29.235Z,72.29
2018-10-07T21:51:33.375Z,71.56
2018-10-07T21:54:37.527Z,72.24
2018-10-07T21:57:41.676Z,73.57
2018-10-07T22:00:45.815Z,73.02
2018-10-07T22:03:49.998Z,72.89
2018-10-07T22:06:57.193Z,72.16
2018-10-07T22:10:01.353Z,72.29
2018-10-07T22:13:05.489Z,71.66
2018-10-07T22:16:09.649Z,72.22
2018-10-07T22:19:13.790Z,71.67
2018-10-07T22:22:17.950Z,71.23
2018-10-07T22:25:22.090Z,72.10
2018-10-07T22:28:26.238Z,72.90
2018-10-07T22:31:30.378Z,73.29
2018-10-07T22:34:34.525Z,72.98
2018-10-07T22:37:38.731Z,72.96
2018-10-07T22:40:42.877Z,73.96
2018-10-07T22:43:47.035Z,74.91
2018-10-07T22:46:51.174Z,75.36
2018-10-07T22:49:55.322Z,74.30
2018-10-07T22:52:59.467Z,73.72
2018-10-07T22:56:03.620Z,74.08
2018-10-07T22:59:07.774Z,74.07
2018-10-07T23:02:11.916Z,74.84
2018-10-07T23:05:16.055Z,75.45
2018-10-07T23:08:20.211Z,74.82
2018-10-07T23:11:24.342Z,74.67
2018-10-07T23:14:28.516Z,73.96
2018-10-07T23:17:32.666Z,73.91
2018-10-07T23:20:36.814Z,74.08
2018-10-07T23:23:40.990Z,73.77
2018-10-07T23:26:45.130Z,72.95
2018-10-07T23:29:49.287Z,72.93
2018-10-07T23:32:53.456Z,72.46
2018-10-07T23:35:57.585Z,73.12
2018-10-07T23:39:01.718Z,72.81
2018-10-07T23:42:05.866Z,72.95
2018-10-07T23:45:10.011Z,72.52
2018-10-07T23:48:14.196Z,72.96
2018-10-07T23:51:18.357Z,72.69
2018-10-07T23:54:22.479Z,72.71
2018-10-07T23:57:26.621Z,72.93
